createdAt,value
2019-04-21T00:02:20.038Z,152.83
2019-04-21T00:04:55.341Z,133.60
2019-04-21T00:07:34.608Z,144.20
2019-04-21T00:10:06.353Z,124.67
2019-04-21T00:12:29.856Z,88.23
2019-04-21T00:14:56.909Z,152.37
2019-04-21T00:17:18.214Z,104.30
2019-04-21T00:20:05.552Z,101.27
2019-04-21T00:22:38.112Z,96.40
2019-04-21T00:25:07.723Z,92.47
2019-04-21T00:27:38.420Z,148.03
2019-04-21T00:30:19.894Z,152.60
2019-04-21T00:32:36.889Z,127.40
2019-04-21T00:35:02.464Z,126.97
2019-04-21T00:37:36.610Z,146.03
2019-04-21T00:40:16.164Z,122.80
2019-04-21T00:42:43.113Z,145.17
2019-04-21T00:45:09.780Z,105.47
2019-04-21T00:47:43.084Z,137.00
2019-04-21T00:50:10.979Z,141.20
2019-04-21T00:53:05.581Z,137.97
2019-04-21T00:55:34.132Z,91.63
2019-04-21T00:58:03.225Z,97.07
2019-04-21T01:00:27.812Z,102.20
2019-04-21T01:03:03.302Z,106.63
2019-04-21T01:05:26.911Z,93.23
2019-04-21T01:08:01.434Z,99.33
2019-04-21T01:10:24.161Z,73.33
2019-04-21T01:13:02.697Z,108.80
2019-04-21T01:15:41.358Z,94.27
2019-04-21T01:17:57.683Z,95.43
2019-04-21T01:20:16.825Z,116.03
2019-04-21T01:22:39.854Z,121.97
2019-04-21T01:25:19.292Z,89.60
2019-04-21T01:28:02.223Z,71.40
2019-04-21T01:30:28.575Z,89.77
2019-04-21T01:33:06.299Z,100.77
2019-04-21T01:35:25.736Z,82.20
2019-04-21T01:38:02.968Z,98.70
2019-04-21T01:40:42.618Z,49.37
2019-04-21T01:43:20.370Z,110.57
2019-04-21T01:45:49.367Z,91.90
2019-04-21T01:48:12.956Z,99.90
2019-04-21T01:50:48.311Z,82.57
2019-04-21T01:53:34.221Z,99.23
2019-04-21T01:56:00.538Z,114.70
2019-04-21T01:58:25.470Z,98.63
2019-04-21T02:01:07.217Z,124.27
2019-04-21T02:06:15.320Z,88.70
2019-04-21T02:08:37.412Z,84.50
2019-04-21T02:11:11.195Z,136.43
2019-04-21T02:13:46.785Z,76.03
2019-04-21T02:16:12.453Z,98.40
2019-04-21T02:18:39.080Z,83.97
2019-04-21T02:20:57.943Z,80.37
2019-04-21T02:23:46.804Z,119.27
2019-04-21T02:26:09.520Z,99.53
2019-04-21T02:31:24.802Z,83.07
2019-04-21T02:33:56.271Z,138.33
2019-04-21T02:41:24.146Z,105.77
2019-04-21T02:43:56.357Z,75.77
2019-04-21T02:46:27.399Z,80.40
2019-04-21T02:51:28.029Z,76.03
2019-04-21T02:54:24.490Z,88.67
2019-04-21T02:56:24.703Z,83.97
2019-04-21T02:59:02.723Z,75.57
2019-04-21T03:05:02.456Z,76.73
2019-04-21T03:09:49.686Z,115.47
2019-04-21T03:12:38.644Z,75.67
2019-04-21T03:15:12.133Z,98.40
2019-04-21T03:17:29.579Z,65.37
2019-04-21T03:22:24.365Z,88.43
2019-04-21T03:25:21.319Z,141.43
2019-04-21T03:27:50.258Z,87.87
2019-04-21T03:29:59.448Z,117.07
2019-04-21T03:35:32.815Z,104.60
2019-04-21T03:38:37.475Z,95.27
2019-04-21T03:42:33.639Z,106.27
2019-04-21T03:44:54.243Z,84.43
2019-04-21T03:50:08.724Z,101.33
2019-04-21T03:52:33.264Z,104.73
2019-04-21T03:55:41.479Z,115.00
2019-04-21T03:58:05.222Z,129.40
2019-04-21T04:00:33.604Z,85.57
2019-04-21T04:03:17.364Z,95.53
2019-04-21T04:05:59.653Z,87.93
2019-04-21T04:08:39.546Z,65.67
2019-04-21T04:11:05.952Z,97.27
2019-04-21T04:13:26.694Z,63.17
2019-04-21T04:15:56.590Z,107.63
2019-04-21T04:18:29.936Z,89.57
2019-04-21T04:20:51.231Z,74.17
2019-04-21T04:23:20.205Z,92.77
2019-04-21T04:25:51.915Z,142.47
2019-04-21T04:28:28.355Z,87.73
2019-04-21T04:30:54.279Z,85.07
2019-04-21T04:33:28.239Z,93.97
2019-04-21T04:36:01.380Z,74.07
2019-04-21T04:43:24.781Z,97.37
2019-04-21T04:48:27.959Z,82.53
2019-04-21T04:56:25.334Z,148.43
2019-04-21T04:58:54.645Z,125.40
2019-04-21T05:01:08.702Z,121.90
2019-04-21T05:03:37.231Z,86.17
2019-04-21T05:06:42.754Z,112.43
2019-04-21T05:14:14.888Z,78.73
2019-04-21T05:16:43.262Z,79.17
2019-04-21T05:21:34.653Z,83.40
2019-04-21T05:23:51.086Z,90.17
2019-04-21T05:26:18.513Z,77.93
2019-04-21T05:28:47.541Z,146.93
2019-04-21T05:31:38.790Z,115.20
2019-04-21T05:34:10.728Z,143.73
2019-04-21T05:37:01.333Z,118.30
2019-04-21T05:39:49.233Z,128.30
2019-04-21T05:42:23.242Z,139.00
2019-04-21T05:45:04.293Z,144.70
2019-04-21T05:47:35.466Z,153.30
2019-04-21T05:50:06.252Z,157.47
2019-04-21T05:58:43.542Z,118.23
2019-04-21T06:08:42.595Z,122.60
2019-04-21T06:13:48.160Z,139.97
2019-04-21T06:16:13.959Z,162.50
2019-04-21T06:18:48.886Z,123.40
2019-04-21T06:21:11.527Z,121.47
2019-04-21T06:23:42.281Z,146.60
2019-04-21T06:26:35.136Z,101.50
2019-04-21T06:28:45.313Z,81.87
2019-04-21T06:31:50.266Z,90.87
2019-04-21T06:33:44.705Z,59.70
2019-04-21T06:36:47.014Z,97.97
2019-04-21T06:49:02.820Z,163.03
2019-04-21T06:51:33.721Z,76.63
2019-04-21T06:59:06.464Z,80.70
2019-04-21T07:01:44.589Z,54.03
2019-04-21T07:06:43.607Z,72.37
2019-04-21T07:09:15.979Z,92.87
2019-04-21T07:11:39.383Z,85.93
2019-04-21T07:16:44.667Z,633.20
2019-04-21T07:21:38.658Z,1010.13
2019-04-21T07:24:14.146Z,719.80
2019-04-21T07:26:44.545Z,457.47
2019-04-21T07:29:20.447Z,896.63
2019-04-21T07:31:57.252Z,511.57
2019-04-21T07:34:23.954Z,535.40
2019-04-21T07:36:54.888Z,958.93
2019-04-21T07:39:18.446Z,569.17
2019-04-21T07:41:43.834Z,663.50
2019-04-21T07:44:08.742Z,543.13
2019-04-21T07:46:41.409Z,737.73
2019-04-21T07:49:40.053Z,728.27
2019-04-21T07:52:46.931Z,503.80
2019-04-21T07:57:31.618Z,1055.97
2019-04-21T08:00:16.606Z,89.20
2019-04-21T08:02:34.149Z,139.70
2019-04-21T08:07:55.927Z,99.00
2019-04-21T08:10:17.151Z,132.50
2019-04-21T08:12:42.043Z,124.37
2019-04-21T08:15:19.424Z,88.37
2019-04-21T08:17:47.340Z,77.47
2019-04-21T08:20:13.815Z,41.07
2019-04-21T08:25:14.920Z,106.03
2019-04-21T08:30:22.644Z,85.57
2019-04-21T08:33:05.004Z,103.13
2019-04-21T08:37:48.424Z,189.23
2019-04-21T08:40:26.702Z,96.57
2019-04-21T08:42:52.153Z,92.27
2019-04-21T08:45:22.595Z,67.93
2019-04-21T08:50:20.718Z,86.77
2019-04-21T08:53:03.944Z,95.53
2019-04-21T08:55:32.071Z,69.33
2019-04-21T08:58:28.955Z,70.73
2019-04-21T09:01:03.957Z,82.43
2019-04-21T09:03:52.032Z,73.87
2019-04-21T09:08:51.958Z,108.60
2019-04-21T09:11:16.336Z,133.37
2019-04-21T09:13:50.757Z,101.90
2019-04-21T09:16:17.043Z,85.77
2019-04-21T09:18:47.312Z,121.77
2019-04-21T09:21:26.933Z,103.13
2019-04-21T09:23:52.374Z,94.00
2019-04-21T09:26:26.378Z,98.07
2019-04-21T09:28:54.552Z,177.27
2019-04-21T09:31:16.072Z,95.20
2019-04-21T09:33:48.979Z,81.23
2019-04-21T09:36:17.958Z,108.73
2019-04-21T09:38:45.686Z,81.53
2019-04-21T09:41:17.577Z,89.67
2019-04-21T09:43:48.384Z,86.23
2019-04-21T09:46:14.183Z,93.67
2019-04-21T09:48:49.590Z,81.23
2019-04-21T09:51:13.146Z,80.10
2019-04-21T09:53:43.650Z,68.47
2019-04-21T09:56:16.611Z,104.83
2019-04-21T09:58:46.845Z,95.93
2019-04-21T10:01:20.356Z,98.27
2019-04-21T10:03:48.300Z,112.57
2019-04-21T10:06:14.451Z,74.10
2019-04-21T10:08:42.339Z,83.23
2019-04-21T10:11:11.882Z,90.50
2019-04-21T10:13:41.866Z,95.60
2019-04-21T10:16:47.464Z,88.77
2019-04-21T10:19:15.912Z,92.33
2019-04-21T10:21:44.500Z,116.23
2019-04-21T10:24:12.964Z,70.33
2019-04-21T10:26:42.982Z,73.90
2019-04-21T10:29:21.752Z,56.47
2019-04-21T10:31:43.276Z,91.37
2019-04-21T10:34:11.758Z,128.23
2019-04-21T10:36:40.802Z,290.00
2019-04-21T10:39:09.431Z,146.73
2019-04-21T10:41:39.303Z,134.20
2019-04-21T10:44:09.346Z,188.17
2019-04-21T10:46:38.941Z,128.43
2019-04-21T10:49:08.559Z,141.23
2019-04-21T10:51:41.068Z,140.53
2019-04-21T10:54:09.878Z,138.10
2019-04-21T10:56:50.710Z,127.30
2019-04-21T10:59:20.447Z,122.53
2019-04-21T11:01:50.456Z,210.97
2019-04-21T11:04:27.812Z,128.77
2019-04-21T11:06:59.400Z,157.27
2019-04-21T11:09:26.844Z,115.73
2019-04-21T11:12:04.078Z,117.20
2019-04-21T11:14:41.160Z,123.63
2019-04-21T11:17:14.315Z,235.40
2019-04-21T11:19:46.455Z,117.23
2019-04-21T11:22:22.974Z,132.77
2019-04-21T11:24:49.086Z,127.60
2019-04-21T11:27:19.111Z,102.97
2019-04-21T11:29:51.821Z,249.87
2019-04-21T11:35:26.007Z,134.93
2019-04-21T11:38:07.258Z,166.80
2019-04-21T11:40:27.580Z,158.17
2019-04-21T11:43:01.974Z,179.73
2019-04-21T11:45:32.669Z,148.23
2019-04-21T11:48:18.527Z,183.17
2019-04-21T11:50:48.598Z,123.43
2019-04-21T11:53:23.086Z,136.43
2019-04-21T11:56:05.050Z,178.77
2019-04-21T11:58:36.076Z,122.17
2019-04-21T12:01:13.905Z,129.17
2019-04-21T12:03:49.632Z,170.00
2019-04-21T12:06:19.455Z,165.33
2019-04-21T12:08:51.481Z,198.83
2019-04-21T12:11:45.215Z,229.20
2019-04-21T12:14:14.387Z,162.97
2019-04-21T12:16:53.017Z,115.93
2019-04-21T12:19:27.007Z,211.67
2019-04-21T12:22:22.150Z,244.57
2019-04-21T12:24:49.532Z,152.20
2019-04-21T12:27:18.196Z,179.40
2019-04-21T12:29:51.575Z,152.47
2019-04-21T12:32:38.043Z,124.77
2019-04-21T12:35:12.888Z,91.73
2019-04-21T12:37:48.982Z,213.67
2019-04-21T12:40:18.660Z,200.17
2019-04-21T12:42:48.448Z,156.57
2019-04-21T12:45:24.097Z,240.23
2019-04-21T12:47:53.919Z,137.37
2019-04-21T12:50:23.589Z,147.10
2019-04-21T12:52:53.566Z,157.43
2019-04-21T12:55:25.137Z,102.13
2019-04-21T12:57:53.389Z,293.70
2019-04-21T13:00:26.935Z,166.37
2019-04-21T13:02:56.118Z,151.90
2019-04-21T13:05:31.651Z,204.70
2019-04-21T13:08:04.207Z,232.93
2019-04-21T13:10:38.035Z,137.93
2019-04-21T13:13:10.403Z,146.53
2019-04-21T13:15:39.754Z,202.50
2019-04-21T13:18:12.405Z,128.60
2019-04-21T13:20:42.179Z,196.60
2019-04-21T13:23:13.797Z,205.13
2019-04-21T13:25:43.638Z,156.47
2019-04-21T13:28:16.635Z,244.60
2019-04-21T13:30:48.831Z,202.17
2019-04-21T13:33:21.012Z,148.30
2019-04-21T13:35:50.898Z,213.90
2019-04-21T13:38:30.135Z,196.93
2019-04-21T13:41:20.391Z,214.10
2019-04-21T13:43:35.023Z,145.60
2019-04-21T13:46:05.898Z,445.83
2019-04-21T13:48:34.805Z,174.10
2019-04-21T13:51:15.435Z,137.93
2019-04-21T13:53:53.620Z,388.40
2019-04-21T13:56:24.851Z,127.27
2019-04-21T13:58:55.913Z,243.03
2019-04-21T14:01:35.638Z,168.33
2019-04-21T14:04:07.329Z,218.73
2019-04-21T14:06:36.449Z,117.03
2019-04-21T14:09:07.382Z,113.07
2019-04-21T14:11:36.019Z,153.77
2019-04-21T14:14:05.850Z,124.90
2019-04-21T14:16:35.984Z,180.33
2019-04-21T14:19:05.604Z,197.87
2019-04-21T14:21:34.123Z,139.13
2019-04-21T14:24:02.587Z,140.17
2019-04-21T14:26:32.146Z,172.73
2019-04-21T14:29:01.549Z,145.60
2019-04-21T14:31:30.441Z,162.20
2019-04-21T14:33:59.658Z,117.70
2019-04-21T14:36:28.697Z,96.67
2019-04-21T14:38:58.612Z,112.23
2019-04-21T14:41:28.412Z,97.93
2019-04-21T14:43:58.455Z,138.97
2019-04-21T14:46:49.168Z,134.87
2019-04-21T14:49:23.561Z,117.07
2019-04-21T14:51:59.007Z,172.20
2019-04-21T14:55:02.738Z,113.63
2019-04-21T14:57:31.596Z,141.77
2019-04-21T15:00:00.697Z,136.33
2019-04-21T15:02:29.909Z,99.30
2019-04-21T15:04:59.760Z,120.03
2019-04-21T15:07:28.255Z,112.73
2019-04-21T15:10:04.415Z,200.97
2019-04-21T15:12:27.856Z,124.07
2019-04-21T15:14:56.363Z,142.73
2019-04-21T15:17:26.120Z,149.23
2019-04-21T15:19:59.638Z,147.73
2019-04-21T15:22:26.084Z,129.53
2019-04-21T15:24:56.238Z,133.27
2019-04-21T15:27:25.126Z,100.20
2019-04-21T15:29:53.515Z,84.27
2019-04-21T15:32:22.225Z,104.67
2019-04-21T15:34:51.968Z,137.50
2019-04-21T15:37:21.950Z,132.47
2019-04-21T15:39:50.933Z,158.97
2019-04-21T15:42:20.801Z,151.73
2019-04-21T15:44:50.508Z,146.50
2019-04-21T15:47:19.948Z,135.93
2019-04-21T15:50:02.966Z,155.80
2019-04-21T15:52:25.475Z,137.70
2019-04-21T15:54:57.013Z,142.10
2019-04-21T15:57:31.861Z,135.63
2019-04-21T16:00:06.837Z,126.27
2019-04-21T16:02:40.412Z,172.37
2019-04-21T16:05:10.550Z,153.23
2019-04-21T16:07:40.345Z,178.80
2019-04-21T16:10:10.621Z,119.43
2019-04-21T16:12:40.151Z,146.20
2019-04-21T16:15:08.678Z,105.87
2019-04-21T16:17:37.365Z,121.63
2019-04-21T16:20:06.223Z,150.10
2019-04-21T16:22:34.878Z,124.80
2019-04-21T16:25:05.071Z,162.60
2019-04-21T16:27:33.626Z,138.37
2019-04-21T16:30:02.078Z,108.63
2019-04-21T16:32:30.459Z,161.03
2019-04-21T16:35:04.787Z,214.80
2019-04-21T16:37:29.786Z,104.63
2019-04-21T16:40:01.365Z,119.03
2019-04-21T16:42:30.074Z,178.03
2019-04-21T16:44:58.922Z,134.13
2019-04-21T16:47:28.254Z,152.50
2019-04-21T16:49:57.866Z,192.17
2019-04-21T16:52:34.194Z,155.73
2019-04-21T16:55:21.702Z,142.93
2019-04-21T16:58:04.273Z,161.17
2019-04-21T17:00:34.880Z,135.03
2019-04-21T17:02:56.644Z,122.43
2019-04-21T17:05:25.650Z,116.90
2019-04-21T17:07:55.523Z,155.37
2019-04-21T17:10:24.598Z,123.77
2019-04-21T17:12:53.658Z,160.47
2019-04-21T17:15:37.286Z,146.17
2019-04-21T17:18:07.543Z,185.57
2019-04-21T17:20:35.224Z,173.67
2019-04-21T17:22:53.557Z,170.97
2019-04-21T17:25:24.960Z,133.27
2019-04-21T17:27:53.447Z,160.57
2019-04-21T17:30:22.320Z,153.33
2019-04-21T17:32:51.952Z,136.73
2019-04-21T17:35:21.089Z,127.27
2019-04-21T17:37:50.027Z,145.20
2019-04-21T17:40:21.920Z,159.07
2019-04-21T17:42:58.294Z,142.53
2019-04-21T17:45:21.239Z,150.43
2019-04-21T17:47:57.268Z,146.47
2019-04-21T17:50:29.473Z,144.47
2019-04-21T17:53:07.137Z,139.93
2019-04-21T17:55:36.744Z,133.17
2019-04-21T17:58:14.917Z,147.60
2019-04-21T18:03:45.784Z,1999.90
2019-04-21T18:06:01.818Z,1999.90
2019-04-21T18:18:12.855Z,56.20
2019-04-21T18:21:32.569Z,86.40
2019-04-21T18:51:12.323Z,108.27
2019-04-21T18:54:19.333Z,43.60
2019-04-21T18:56:25.316Z,45.17
2019-04-21T18:58:54.233Z,44.30
2019-04-21T19:01:27.751Z,39.73
2019-04-21T19:03:55.937Z,44.33
2019-04-21T19:06:42.392Z,45.33
2019-04-21T19:09:11.280Z,52.93
2019-04-21T19:11:44.711Z,86.10
2019-04-21T19:17:10.715Z,47.27
2019-04-21T19:19:41.118Z,43.63
2019-04-21T19:21:55.499Z,43.60
2019-04-21T19:26:59.333Z,38.63
2019-04-21T19:31:54.662Z,70.80
2019-04-21T19:34:12.900Z,34.83
2019-04-21T19:36:36.583Z,92.57
2019-04-21T19:39:12.825Z,37.10
2019-04-21T19:41:52.049Z,44.37
2019-04-21T19:44:24.649Z,40.63
2019-04-21T19:46:55.587Z,37.87
2019-04-21T19:49:27.796Z,46.87
2019-04-21T19:51:46.294Z,32.90
2019-04-21T19:54:20.201Z,40.30
2019-04-21T19:56:38.497Z,50.37
2019-04-21T19:59:06.960Z,33.07
2019-04-21T20:01:37.221Z,45.47
2019-04-21T20:04:06.309Z,50.23
2019-04-21T20:06:47.677Z,45.93
2019-04-21T20:09:21.842Z,54.57
2019-04-21T20:11:52.208Z,50.53
2019-04-21T20:16:49.391Z,33.70
2019-04-21T20:19:11.619Z,44.43
2019-04-21T20:21:36.515Z,31.60
2019-04-21T20:24:11.162Z,50.33
2019-04-21T20:26:41.298Z,57.00
2019-04-21T20:29:21.821Z,60.27
2019-04-21T20:31:51.788Z,46.00
2019-04-21T20:34:29.805Z,93.40
2019-04-21T20:36:57.125Z,55.70
2019-04-21T20:39:12.884Z,63.07
2019-04-21T20:41:49.934Z,58.67
2019-04-21T20:44:23.504Z,48.93
2019-04-21T20:46:51.579Z,54.97
2019-04-21T20:49:19.166Z,60.07
2019-04-21T20:52:01.737Z,54.60
2019-04-21T20:54:24.541Z,118.87
2019-04-21T20:56:59.204Z,52.77
2019-04-21T20:59:23.911Z,55.03
2019-04-21T21:01:59.941Z,52.47
2019-04-21T21:04:19.378Z,96.57
2019-04-21T21:06:54.135Z,56.27
2019-04-21T21:09:17.977Z,51.50
2019-04-21T21:12:10.131Z,67.17
2019-04-21T21:14:30.622Z,67.40
2019-04-21T21:16:58.247Z,57.07
2019-04-21T21:19:28.633Z,51.60
2019-04-21T21:21:54.309Z,61.60
2019-04-21T21:24:33.172Z,59.63
2019-04-21T21:26:59.366Z,62.33
2019-04-21T21:29:29.177Z,57.33
2019-04-21T21:31:55.571Z,56.37
2019-04-21T21:34:30.814Z,47.80
2019-04-21T21:36:55.528Z,41.20
2019-04-21T21:39:21.282Z,33.83
2019-04-21T21:41:46.419Z,33.37
2019-04-21T21:44:14.446Z,35.27
2019-04-21T21:46:49.960Z,33.67
2019-04-21T21:49:23.706Z,38.07
2019-04-21T21:51:52.867Z,39.33
2019-04-21T21:54:09.748Z,37.23
2019-04-21T21:56:38.516Z,42.43
2019-04-21T21:59:13.551Z,31.33
2019-04-21T22:01:41.583Z,27.33
2019-04-21T22:04:13.355Z,34.83
2019-04-21T22:06:45.445Z,34.30
2019-04-21T22:09:08.488Z,33.33
2019-04-21T22:11:38.059Z,32.13
2019-04-21T22:14:09.608Z,29.50
2019-04-21T22:16:43.211Z,31.80
2019-04-21T22:22:02.476Z,51.90
2019-04-21T22:24:26.818Z,39.23
2019-04-21T22:26:45.266Z,48.27
2019-04-21T22:29:13.888Z,46.17
2019-04-21T22:31:44.563Z,59.13
2019-04-21T22:34:14.459Z,38.07
2019-04-21T22:36:48.797Z,50.03
2019-04-21T22:39:28.282Z,29.07
2019-04-21T22:41:46.679Z,53.90
2019-04-21T22:44:30.173Z,56.23
2019-04-21T22:49:54.438Z,56.83
2019-04-21T22:52:28.303Z,41.83
2019-04-21T22:55:03.215Z,50.40
2019-04-21T22:57:32.548Z,31.00
2019-04-21T23:00:01.834Z,40.37
2019-04-21T23:02:33.499Z,29.90
2019-04-21T23:05:01.866Z,49.33
2019-04-21T23:07:40.116Z,51.57
2019-04-21T23:10:03.563Z,26.30
2019-04-21T23:12:36.653Z,38.37
2019-04-21T23:15:09.234Z,41.47
2019-04-21T23:17:54.228Z,41.47
2019-04-21T23:20:27.834Z,38.60
2019-04-21T23:23:00.812Z,60.97
2019-04-21T23:25:27.951Z,43.23
2019-04-21T23:27:59.990Z,56.07
2019-04-21T23:30:37.698Z,50.47
2019-04-21T23:32:55.963Z,45.23
2019-04-21T23:35:21.801Z,59.50
2019-04-21T23:37:52.004Z,51.57
2019-04-21T23:40:19.669Z,35.23
2019-04-21T23:42:45.488Z,42.53
2019-04-21T23:45:19.561Z,50.20
2019-04-21T23:47:59.111Z,35.33
2019-04-21T23:50:25.376Z,28.60
2019-04-21T23:52:45.777Z,67.13
2019-04-21T23:55:17.035Z,37.87
2019-04-21T23:57:48.846Z,55.13
